Time;durP1;ratioP1;P1;durP2;ratioP2;P2;SDS_P1;SDS_P2;PMS_P1;PMS_P2;Temp;Humidity;BMP_temperature;BMP_pressure;BME280_temperature;BME280_humidity;BME280_pressure;Samples;Min_cycle;Max_cycle;Signal;HPM_P1;HPM_P2
2020/12/22 00:01:13;;;;;;;27.13;19.23;;;6.60;99.90;;;;;;5072597;28;20021;-78
2020/12/22 00:03:41;;;;;;;24.45;17.08;;;6.70;99.90;;;;;;5055709;28;20544;-77
2020/12/22 00:06:07;;;;;;;22.33;15.45;;;6.60;99.90;;;;;;5072333;28;20029;-78
2020/12/22 00:08:33;;;;;;;25.15;17.42;;;6.70;99.90;;;;;;5072362;28;20060;-78
2020/12/22 00:10:59;;;;;;;19.52;15.90;;;6.70;99.90;;;;;;5072343;28;20028;-77
2020/12/22 00:13:24;;;;;;;20.90;15.55;;;6.70;99.90;;;;;;5060317;28;20021;-78
2020/12/22 00:15:50;;;;;;;20.98;15.88;;;6.70;99.90;;;;;;5052060;28;20045;-78
2020/12/22 00:18:16;;;;;;;24.02;17.40;;;6.70;99.90;;;;;;5064325;28;20111;-78
2020/12/22 00:20:43;;;;;;;19.77;13.85;;;6.70;99.90;;;;;;5071052;28;20419;-78
2020/12/22 00:23:09;;;;;;;20.42;14.15;;;6.70;99.90;;;;;;5065242;28;20401;-78
2020/12/22 00:25:46;;;;;;;18.75;14.70;;;6.70;99.90;;;;;;5052055;28;20040;-78
2020/12/22 00:28:13;;;;;;;18.38;14.05;;;6.70;99.90;;;;;;5052165;28;20115;-78
2020/12/22 00:30:39;;;;;;;21.45;14.30;;;6.70;99.90;;;;;;5050915;28;20025;-78
2020/12/22 00:33:05;;;;;;;17.50;13.40;;;6.70;99.90;;;;;;5062364;28;20029;-78
2020/12/22 00:35:31;;;;;;;22.08;14.73;;;6.70;99.90;;;;;;5071578;28;20377;-78
2020/12/22 00:37:58;;;;;;;17.88;13.45;;;6.70;99.90;;;;;;5071985;28;20138;-78
2020/12/22 00:40:24;;;;;;;17.85;13.50;;;6.70;99.90;;;;;;5070785;28;20020;-77
2020/12/22 00:42:50;;;;;;;17.70;13.70;;;6.70;99.90;;;;;;5066071;28;20086;-78
2020/12/22 00:45:16;;;;;;;21.63;13.63;;;6.80;99.90;;;;;;5051581;28;20029;-78
2020/12/22 00:47:42;;;;;;;26.58;15.45;;;6.80;99.90;;;;;;5050565;28;20036;-78
2020/12/22 00:50:07;;;;;;;20.75;16.00;;;6.80;99.90;;;;;;5051845;28;20040;-78
2020/12/22 00:52:33;;;;;;;21.67;15.57;;;6.70;99.90;;;;;;5051846;28;20033;-78
2020/12/22 00:54:58;;;;;;;18.95;14.18;;;6.80;99.90;;;;;;5071639;28;20059;-79
2020/12/22 00:57:24;;;;;;;20.52;15.15;;;6.80;99.90;;;;;;5070375;28;20028;-78
2020/12/22 00:59:49;;;;;;;23.83;15.98;;;6.90;99.90;;;;;;5071697;28;20433;-79
2020/12/22 01:02:15;;;;;;;18.85;15.23;;;6.90;99.90;;;;;;5067742;28;20021;-78
2020/12/22 01:04:40;;;;;;;19.42;14.18;;;6.90;99.90;;;;;;5050250;28;20029;-78
2020/12/22 01:07:06;;;;;;;22.38;13.18;;;7.00;99.90;;;;;;5051493;28;20029;-78
2020/12/22 01:09:32;;;;;;;18.48;14.07;;;7.00;99.90;;;;;;5050377;28;20125;-78
2020/12/22 01:11:57;;;;;;;19.63;14.23;;;7.10;99.90;;;;;;5050355;28;20105;-78
2020/12/22 01:14:23;;;;;;;23.15;14.48;;;7.10;99.90;;;;;;5069792;28;20035;-78
2020/12/22 01:16:49;;;;;;;22.00;15.15;;;7.10;99.90;;;;;;5069821;28;20119;-78
2020/12/22 01:19:14;;;;;;;21.92;14.60;;;7.10;99.90;;;;;;5071581;28;20040;-78
2020/12/22 01:21:43;;;;;;;20.58;14.93;;;7.10;99.90;;;;;;5071492;28;20119;-78
2020/12/22 01:24:08;;;;;;;19.85;13.10;;;7.20;99.90;;;;;;5057726;28;20389;-78
2020/12/22 01:26:34;;;;;;;21.40;13.68;;;7.20;99.90;;;;;;5051500;28;20033;-78
2020/12/22 01:28:59;;;;;;;18.05;13.20;;;7.20;99.90;;;;;;5051479;28;20545;-78
2020/12/22 01:31:29;;;;;;;24.75;16.02;;;7.20;99.90;;;;;;5051401;28;20421;-78
2020/12/22 01:33:56;;;;;;;19.77;13.75;;;7.30;99.90;;;;;;5068558;28;20031;-78
2020/12/22 01:36:23;;;;;;;23.50;15.85;;;7.30;99.90;;;;;;5070101;28;20095;-79
2020/12/22 01:38:49;;;;;;;23.42;15.50;;;7.30;99.90;;;;;;5071426;28;20078;-79
2020/12/22 01:41:16;;;;;;;21.90;14.73;;;7.30;99.90;;;;;;5070171;28;20032;-79
2020/12/22 01:43:42;;;;;;;22.17;15.60;;;7.30;99.90;;;;;;5056864;28;20471;-79
2020/12/22 01:46:08;;;;;;;20.42;14.80;;;7.30;99.90;;;;;;5051222;28;20032;-78
2020/12/22 01:48:36;;;;;;;22.00;15.07;;;7.30;99.90;;;;;;5066998;28;20074;-79
2020/12/22 01:51:03;;;;;;;26.05;16.42;;;7.40;99.90;;;;;;5075096;28;20021;-79
2020/12/22 01:53:29;;;;;;;24.92;16.02;;;7.40;99.90;;;;;;5066540;28;20032;-79
2020/12/22 01:55:54;;;;;;;24.10;16.23;;;7.40;99.90;;;;;;5054884;28;20108;-78
2020/12/22 01:58:20;;;;;;;21.27;15.15;;;7.40;99.90;;;;;;5054652;28;20427;-79
2020/12/22 02:00:46;;;;;;;24.60;16.42;;;7.40;99.90;;;;;;5054967;28;20021;-78
2020/12/22 02:03:13;;;;;;;24.55;16.25;;;7.40;99.90;;;;;;5066166;28;20041;-78
2020/12/22 02:05:39;;;;;;;21.45;15.30;;;7.40;99.90;;;;;;5074603;28;20024;-79
2020/12/22 02:08:05;;;;;;;25.90;17.27;;;7.50;99.90;;;;;;5074741;28;20024;-78
2020/12/22 02:10:31;;;;;;;24.75;15.93;;;7.50;99.90;;;;;;5074723;28;20024;-78
2020/12/22 02:12:58;;;;;;;27.80;16.35;;;7.50;99.90;;;;;;5067788;28;20025;-79
2020/12/22 02:15:23;;;;;;;25.70;16.73;;;7.60;99.90;;;;;;5054462;28;20029;-78
2020/12/22 02:17:49;;;;;;;23.13;16.85;;;7.60;99.90;;;;;;5054296;28;20035;-78
2020/12/22 02:20:15;;;;;;;25.23;17.02;;;7.60;99.90;;;;;;5054492;28;20025;-78
2020/12/22 02:22:41;;;;;;;26.95;17.42;;;7.60;99.90;;;;;;5054699;28;20075;-78
2020/12/22 02:25:17;;;;;;;26.05;17.65;;;7.60;99.90;;;;;;5054103;28;20025;-78
2020/12/22 02:27:42;;;;;;;31.95;18.23;;;7.60;99.90;;;;;;5053053;28;20382;-78
2020/12/22 02:30:09;;;;;;;31.25;18.05;;;7.60;99.90;;;;;;5054398;28;20048;-78
2020/12/22 02:32:34;;;;;;;27.23;17.85;;;7.70;99.90;;;;;;5060301;28;20101;-79
2020/12/22 02:35:00;;;;;;;27.70;18.65;;;7.70;99.90;;;;;;5074113;28;20469;-78
2020/12/22 02:37:26;;;;;;;29.90;19.08;;;7.70;99.90;;;;;;5072938;28;20029;-78
2020/12/22 02:39:51;;;;;;;24.02;16.50;;;7.70;99.90;;;;;;5074166;28;20123;-78
2020/12/22 02:42:17;;;;;;;24.65;16.35;;;7.70;99.90;;;;;;5072841;28;20059;-78
2020/12/22 02:44:43;;;;;;;21.08;14.73;;;7.80;99.90;;;;;;5057587;28;20024;-78
2020/12/22 02:47:12;;;;;;;20.00;14.95;;;7.80;99.90;;;;;;5070560;28;20036;-78
2020/12/22 02:49:39;;;;;;;17.85;12.50;;;7.80;99.90;;;;;;5052742;28;20036;-78
2020/12/22 02:52:05;;;;;;;19.75;13.23;;;7.90;99.90;;;;;;5053952;28;20458;-78
2020/12/22 02:54:31;;;;;;;17.70;11.95;;;7.90;99.90;;;;;;5070065;28;20056;-77
2020/12/22 02:56:56;;;;;;;21.45;13.52;;;7.90;99.90;;;;;;5073808;28;20024;-78
2020/12/22 02:59:22;;;;;;;18.83;13.20;;;7.90;99.90;;;;;;5072289;28;20472;-78
2020/12/22 03:01:47;;;;;;;20.10;13.02;;;7.90;99.90;;;;;;5073386;28;20032;-78
2020/12/22 03:04:13;;;;;;;21.05;14.02;;;7.90;99.90;;;;;;5053633;28;20021;-78
2020/12/22 03:06:39;;;;;;;20.60;13.35;;;8.00;99.90;;;;;;5053661;28;20029;-78
2020/12/22 03:09:05;;;;;;;17.05;12.02;;;8.00;99.90;;;;;;5052375;28;20107;-78
2020/12/22 03:11:31;;;;;;;17.83;11.98;;;8.00;99.90;;;;;;5053490;28;20029;-79
2020/12/22 03:13:56;;;;;;;15.57;10.30;;;8.10;99.90;;;;;;5066621;28;20025;-78
2020/12/22 03:16:22;;;;;;;15.68;10.43;;;8.10;99.90;;;;;;5073211;28;20028;-78
2020/12/22 03:18:47;;;;;;;17.08;11.70;;;8.20;99.90;;;;;;5056855;28;20029;-78
2020/12/22 03:21:15;;;;;;;22.17;12.77;;;8.30;99.90;;;;;;5053450;28;20063;-78
2020/12/22 03:23:41;;;;;;;16.55;12.07;;;8.30;99.90;;;;;;5062678;28;20472;-78
2020/12/22 03:26:06;;;;;;;18.42;11.77;;;8.30;99.90;;;;;;5071921;28;20025;-78
2020/12/22 03:28:32;;;;;;;17.05;12.10;;;8.30;99.90;;;;;;5073241;28;20028;-77
2020/12/22 03:30:57;;;;;;;20.45;12.55;;;8.30;99.90;;;;;;5073130;28;20032;-78
2020/12/22 03:33:23;;;;;;;21.80;12.30;;;8.30;99.90;;;;;;5059848;28;20025;-78
2020/12/22 03:35:49;;;;;;;20.38;12.45;;;8.30;99.90;;;;;;5052881;28;20029;-79
2020/12/22 03:38:14;;;;;;;20.17;12.15;;;8.30;99.90;;;;;;5053003;28;20103;-78
2020/12/22 03:40:40;;;;;;;21.50;11.85;;;8.40;99.90;;;;;;5053032;28;20021;-78
2020/12/22 03:43:05;;;;;;;26.30;12.20;;;8.50;99.90;;;;;;5060527;28;20029;-78
2020/12/22 03:45:31;;;;;;;22.88;11.90;;;8.60;99.90;;;;;;5071975;28;20039;-78
2020/12/22 03:47:57;;;;;;;22.75;13.20;;;8.70;99.90;;;;;;5071153;28;20032;-78
2020/12/22 03:50:22;;;;;;;24.95;13.10;;;8.80;99.90;;;;;;5072901;28;20021;-78
2020/12/22 03:52:48;;;;;;;24.73;14.50;;;8.90;99.90;;;;;;5070094;28;21119;-79
2020/12/22 03:55:14;;;;;;;22.27;13.15;;;8.80;99.90;;;;;;5051639;28;20021;-78
2020/12/22 03:57:40;;;;;;;20.98;12.70;;;8.90;99.90;;;;;;5051755;28;20071;-79
2020/12/22 04:00:09;;;;;;;27.30;15.20;;;8.90;99.90;;;;;;5052605;28;20017;-79
2020/12/22 04:02:35;;;;;;;33.65;15.25;;;8.90;99.90;;;;;;5058674;28;20111;-79
2020/12/22 04:05:00;;;;;;;32.35;15.13;;;9.00;99.90;;;;;;5071182;28;20451;-79
2020/12/22 04:07:26;;;;;;;24.63;12.60;;;9.00;99.90;;;;;;5071229;28;20024;-79
2020/12/22 04:09:51;;;;;;;27.98;13.50;;;9.00;99.90;;;;;;5071864;28;20499;-79
2020/12/22 04:12:17;;;;;;;27.60;14.73;;;9.00;99.90;;;;;;5071108;28;20040;-78
2020/12/22 04:14:42;;;;;;;27.25;13.55;;;9.00;99.90;;;;;;5050947;28;20056;-79
2020/12/22 04:17:08;;;;;;;33.95;14.73;;;9.00;99.90;;;;;;5052176;28;20025;-79
2020/12/22 04:19:34;;;;;;;34.95;15.48;;;8.90;99.90;;;;;;5052398;28;20029;-79
2020/12/22 04:21:59;;;;;;;33.58;14.70;;;8.90;99.90;;;;;;5052294;28;20024;-79
2020/12/22 04:24:25;;;;;;;30.55;13.32;;;8.90;99.90;;;;;;5067423;28;20071;-79
2020/12/22 04:26:50;;;;;;;35.75;15.10;;;8.90;99.90;;;;;;5072148;28;20035;-78
2020/12/22 04:29:16;;;;;;;34.58;12.80;;;8.90;99.90;;;;;;5072148;28;20481;-79
2020/12/22 04:31:41;;;;;;;36.88;14.70;;;9.00;99.90;;;;;;5072137;28;20109;-79
2020/12/22 04:34:07;;;;;;;30.58;13.25;;;9.00;99.90;;;;;;5052696;28;20021;-79
2020/12/22 04:36:33;;;;;;;29.40;13.70;;;9.00;99.90;;;;;;5051993;28;20511;-78
2020/12/22 04:38:59;;;;;;;34.45;12.75;;;9.00;99.90;;;;;;5052045;28;20389;-78
2020/12/22 04:41:24;;;;;;;29.50;11.57;;;9.00;99.90;;;;;;5050749;28;20021;-79
2020/12/22 04:43:52;;;;;;;31.15;12.23;;;9.00;99.90;;;;;;5065220;28;20025;-80
2020/12/22 04:46:20;;;;;;;24.75;11.30;;;9.00;99.90;;;;;;5071274;28;20036;-78
2020/12/22 04:48:51;;;;;;;27.67;11.93;;;9.00;99.90;;;;;;5055684;28;20028;-78
2020/12/22 04:51:18;;;;;;;29.55;13.45;;;9.00;99.90;;;;;;5051882;28;20493;-79
2020/12/22 04:53:44;;;;;;;26.77;11.60;;;9.10;99.90;;;;;;5061311;28;20469;-78
2020/12/22 04:56:09;;;;;;;29.33;12.07;;;9.10;99.90;;;;;;5071807;28;20480;-79
2020/12/22 04:58:36;;;;;;;33.65;13.10;;;9.10;99.90;;;;;;5071613;28;20089;-78
2020/12/22 05:01:02;;;;;;;42.42;14.63;;;9.10;99.90;;;;;;5071829;28;20066;-79
2020/12/22 05:03:28;;;;;;;44.42;16.42;;;9.20;99.90;;;;;;5058251;28;20044;-79
2020/12/22 05:05:54;;;;;;;34.08;13.10;;;9.10;99.90;;;;;;5051553;28;20021;-79
2020/12/22 05:08:20;;;;;;;43.20;13.63;;;9.20;99.90;;;;;;5050324;28;20599;-79
2020/12/22 05:10:50;;;;;;;38.22;13.65;;;9.20;99.90;;;;;;5052527;28;20488;-79
2020/12/22 05:13:17;;;;;;;31.98;12.85;;;9.30;99.90;;;;;;5050333;28;20178;-79
2020/12/22 05:15:46;;;;;;;34.25;12.90;;;9.30;99.90;;;;;;5051321;28;20056;-79
2020/12/22 05:18:12;;;;;;;34.88;12.55;;;9.20;99.90;;;;;;5061212;28;20033;-79
2020/12/22 05:20:46;;;;;;;42.08;11.98;;;9.20;99.90;;;;;;5071536;28;20384;-78
2020/12/22 05:23:16;;;;;;;32.33;11.10;;;9.20;99.90;;;;;;5075388;28;20100;-79
2020/12/22 05:25:44;;;;;;;30.10;10.80;;;9.20;99.90;;;;;;5075427;28;20025;-78
2020/12/22 05:28:14;;;;;;;25.83;10.93;;;9.20;99.90;;;;;;5067243;28;20025;-79
2020/12/22 05:30:39;;;;;;;24.38;10.00;;;9.30;99.90;;;;;;5054298;28;20024;-79
2020/12/22 05:33:05;;;;;;;24.63;10.13;;;9.40;99.90;;;;;;5065396;28;20035;-79
2020/12/22 05:35:36;;;;;;;27.58;10.45;;;9.40;99.90;;;;;;5075275;28;20031;-79
2020/12/22 05:38:04;;;;;;;25.75;9.82;;;9.60;99.90;;;;;;5073141;28;20840;-79
2020/12/22 05:40:30;;;;;;;25.38;11.00;;;9.50;99.90;;;;;;5075370;28;20021;-79
2020/12/22 05:42:57;;;;;;;24.40;9.50;;;9.60;99.90;;;;;;5074088;28;20089;-78
2020/12/22 05:45:24;;;;;;;23.70;9.93;;;9.70;99.90;;;;;;5075142;28;20103;-80
2020/12/22 05:47:55;;;;;;;26.42;9.70;;;9.70;99.90;;;;;;5066834;28;20103;-79
2020/12/22 05:50:23;;;;;;;23.30;7.72;;;9.70;99.90;;;;;;5055122;28;20032;-79
2020/12/22 05:52:52;;;;;;;21.88;7.38;;;9.70;99.90;;;;;;5054970;28;20078;-80
2020/12/22 05:55:29;;;;;;;24.35;8.88;;;9.70;99.90;;;;;;5054889;28;20055;-79
2020/12/22 05:58:10;;;;;;;26.08;8.60;;;9.60;99.90;;;;;;5059280;28;20021;-80
2020/12/22 06:00:37;;;;;;;22.27;8.23;;;9.70;99.90;;;;;;5074977;28;20017;-79
2020/12/22 06:03:14;;;;;;;26.40;7.43;;;9.60;99.90;;;;;;5074231;28;20434;-79
2020/12/22 06:05:42;;;;;;;23.30;8.25;;;9.60;99.90;;;;;;5074623;28;20029;-79
2020/12/22 06:08:11;;;;;;;22.70;6.97;;;9.50;99.90;;;;;;5069718;28;20112;-79
2020/12/22 06:10:39;;;;;;;19.25;7.10;;;9.50;99.90;;;;;;5053520;28;20494;-79
2020/12/22 06:13:06;;;;;;;19.80;6.78;;;9.40;99.90;;;;;;5054658;28;20060;-79
2020/12/22 06:15:32;;;;;;;20.05;5.72;;;9.40;99.90;;;;;;5054388;28;20086;-78
2020/12/22 06:17:59;;;;;;;14.95;5.15;;;9.40;99.90;;;;;;5063546;28;20396;-79
2020/12/22 06:20:26;;;;;;;13.48;4.32;;;9.40;99.90;;;;;;5074591;28;20024;-79
2020/12/22 06:23:06;;;;;;;10.73;4.50;;;9.30;99.90;;;;;;5073183;28;20032;-79
2020/12/22 06:25:34;;;;;;;14.77;5.25;;;9.30;99.90;;;;;;5074313;28;20082;-79
2020/12/22 06:28:00;;;;;;;14.35;5.43;;;9.30;99.90;;;;;;5067499;28;20025;-79
2020/12/22 06:30:35;;;;;;;22.00;6.97;;;9.30;99.90;;;;;;5054347;28;20481;-79
2020/12/22 06:33:24;;;;;;;30.13;7.47;;;9.30;99.90;;;;;;5053520;28;20032;-79
2020/12/22 06:36:02;;;;;;;24.35;8.05;;;9.30;99.90;;;;;;5052831;28;20029;-80
2020/12/22 06:38:45;;;;;;;37.50;8.60;;;9.20;99.90;;;;;;5061285;28;20502;-79
2020/12/22 06:41:11;;;;;;;30.35;7.13;;;9.30;99.90;;;;;;5074174;28;20031;-79
2020/12/22 06:43:43;;;;;;;30.20;8.73;;;9.20;99.90;;;;;;5074177;28;20100;-79
2020/12/22 06:46:34;;;;;;;38.53;8.60;;;9.20;99.90;;;;;;5072869;28;20029;-79
2020/12/22 06:49:00;;;;;;;32.08;8.98;;;9.30;99.90;;;;;;5056166;28;20028;-79
2020/12/22 06:51:33;;;;;;;45.38;9.27;;;9.30;99.90;;;;;;5054310;28;20083;-78
2020/12/22 06:54:00;;;;;;;47.70;10.13;;;9.40;99.90;;;;;;5052728;28;20024;-79
2020/12/22 06:56:49;;;;;;;49.08;9.65;;;9.40;99.90;;;;;;5052528;28;20025;-79
2020/12/22 06:59:36;;;;;;;31.15;9.60;;;9.40;99.90;;;;;;5069145;28;20036;-79
2020/12/22 07:02:02;;;;;;;35.47;10.57;;;9.40;99.90;;;;;;5072128;28;20040;-78
2020/12/22 07:04:39;;;;;;;54.92;12.65;;;9.40;99.90;;;;;;5053606;28;20419;-79
2020/12/22 07:07:04;;;;;;;51.90;11.65;;;9.40;99.90;;;;;;5052405;28;20033;-79
2020/12/22 07:09:35;;;;;;;48.22;11.57;;;9.40;99.90;;;;;;5069433;28;20036;-79
2020/12/22 07:12:12;;;;;;;49.58;10.77;;;9.40;99.90;;;;;;5073503;28;20024;-79
2020/12/22 07:14:44;;;;;;;52.75;11.82;;;9.50;99.90;;;;;;5072098;28;20074;-79
2020/12/22 07:17:14;;;;;;;61.70;12.85;;;9.60;99.90;;;;;;5070557;28;20039;-79
2020/12/22 07:19:44;;;;;;;68.00;12.13;;;9.50;99.90;;;;;;5053575;28;20401;-79
2020/12/22 07:22:10;;;;;;;61.97;14.40;;;9.50;99.90;;;;;;5052083;28;20109;-79
2020/12/22 07:24:37;;;;;;;49.05;13.35;;;9.50;99.90;;;;;;5051988;28;20477;-78
2020/12/22 07:27:07;;;;;;;55.22;14.48;;;9.50;99.90;;;;;;5052045;28;20096;-79
2020/12/22 07:29:40;;;;;;;59.50;18.55;;;9.50;99.90;;;;;;5072415;28;20042;-79
2020/12/22 07:32:06;;;;;;;70.82;19.77;;;9.50;99.90;;;;;;5072960;28;20025;-79
2020/12/22 07:34:33;;;;;;;71.53;23.63;;;9.50;99.90;;;;;;5072888;28;20380;-79
2020/12/22 07:37:06;;;;;;;83.05;25.05;;;9.40;99.90;;;;;;5071871;28;20480;-79
2020/12/22 07:39:32;;;;;;;68.50;25.50;;;9.40;99.90;;;;;;5056578;28;20057;-78
2020/12/22 07:42:14;;;;;;;101.70;27.02;;;9.40;99.90;;;;;;5053098;28;20033;-79
2020/12/22 07:44:42;;;;;;;87.88;27.15;;;9.40;99.90;;;;;;5052202;28;20487;-78
2020/12/22 07:47:09;;;;;;;83.38;27.25;;;9.40;99.90;;;;;;5054411;28;20631;-79
2020/12/22 07:49:37;;;;;;;80.07;25.83;;;9.40;99.90;;;;;;5058298;28;20048;-79
2020/12/22 07:52:03;;;;;;;88.70;27.00;;;9.30;99.90;;;;;;5071055;28;20500;-78
2020/12/22 07:54:29;;;;;;;95.63;24.33;;;9.20;99.90;;;;;;5070399;28;20158;-80
2020/12/22 07:56:59;;;;;;;88.18;23.90;;;9.10;99.90;;;;;;5051290;28;20044;-79
2020/12/22 07:59:26;;;;;;;87.68;22.42;;;9.00;99.90;;;;;;5068982;28;20028;-80
2020/12/22 08:01:52;;;;;;;95.43;22.63;;;9.00;99.90;;;;;;5072105;28;20047;-80
2020/12/22 08:04:26;;;;;;;72.03;19.35;;;9.00;99.90;;;;;;5071588;28;20070;-79
2020/12/22 08:06:59;;;;;;;56.35;17.27;;;8.90;99.90;;;;;;5072427;28;20124;-79
2020/12/22 08:09:30;;;;;;;67.20;18.17;;;8.90;99.90;;;;;;5056934;28;20032;-78
2020/12/22 08:11:58;;;;;;;69.07;18.95;;;8.80;99.90;;;;;;5052161;28;20029;-78
2020/12/22 08:14:25;;;;;;;65.55;17.42;;;8.90;99.90;;;;;;5052155;28;20025;-78
2020/12/22 08:16:53;;;;;;;64.53;21.80;;;8.80;99.90;;;;;;5050844;28;20489;-79
2020/12/22 08:19:20;;;;;;;71.25;19.30;;;8.80;99.90;;;;;;5050909;28;20028;-79
2020/12/22 08:21:47;;;;;;;59.10;16.50;;;8.70;99.90;;;;;;5052201;28;20112;-78
2020/12/22 08:24:15;;;;;;;64.88;17.20;;;8.70;99.90;;;;;;5052087;28;20025;-79
2020/12/22 08:26:47;;;;;;;67.35;17.52;;;8.70;99.90;;;;;;5050590;28;20035;-79
2020/12/22 08:29:15;;;;;;;63.15;17.23;;;8.70;99.90;;;;;;5066955;28;20050;-79
2020/12/22 08:31:42;;;;;;;73.60;19.30;;;8.70;99.90;;;;;;5072021;28;20385;-79
2020/12/22 08:34:10;;;;;;;61.80;16.80;;;8.70;99.90;;;;;;5051505;28;20029;-79
2020/12/22 08:36:36;;;;;;;70.72;17.88;;;8.70;99.90;;;;;;5051878;28;20104;-79
2020/12/22 08:39:21;;;;;;;54.20;15.85;;;8.70;99.90;;;;;;5052239;28;20100;-78
2020/12/22 08:41:51;;;;;;;54.65;15.43;;;8.60;99.90;;;;;;5051884;28;20017;-79
2020/12/22 08:44:18;;;;;;;62.25;16.40;;;8.60;99.90;;;;;;5051694;28;20083;-79
2020/12/22 08:46:44;;;;;;;67.68;15.20;;;8.60;99.90;;;;;;5051789;28;20024;-79
2020/12/22 08:49:15;;;;;;;76.68;14.38;;;8.60;99.90;;;;;;5050599;28;20019;-79
2020/12/22 08:51:42;;;;;;;58.83;12.95;;;8.60;99.90;;;;;;5050307;28;20382;-80
2020/12/22 08:54:08;;;;;;;68.60;15.10;;;8.60;99.90;;;;;;5051518;28;20064;-79
2020/12/22 08:56:34;;;;;;;49.53;12.48;;;8.60;99.90;;;;;;5050227;28;20116;-81
2020/12/22 08:59:05;;;;;;;43.72;11.93;;;8.50;99.90;;;;;;5066192;28;20206;-80
2020/12/22 09:01:46;;;;;;;50.90;11.90;;;8.50;99.90;;;;;;5071787;28;20020;-79
2020/12/22 09:04:14;;;;;;;42.88;10.43;;;8.50;99.90;;;;;;5069755;28;20496;-79
2020/12/22 09:06:42;;;;;;;39.60;9.65;;;8.50;99.90;;;;;;5071685;28;20030;-80
2020/12/22 09:09:18;;;;;;;38.58;9.63;;;8.50;99.90;;;;;;5058462;28;20416;-80
2020/12/22 09:11:47;;;;;;;34.63;9.27;;;8.50;99.90;;;;;;5051837;28;20021;-78
2020/12/22 09:14:14;;;;;;;43.63;9.00;;;8.50;99.90;;;;;;5050140;28;20033;-79
2020/12/22 09:16:55;;;;;;;31.30;9.27;;;8.50;99.90;;;;;;5051288;28;20455;-80
2020/12/22 09:19:22;;;;;;;48.55;9.38;;;8.50;99.90;;;;;;5051532;28;20366;-79
2020/12/22 09:21:57;;;;;;;33.78;8.82;;;8.50;99.90;;;;;;5051530;28;20032;-79
2020/12/22 09:24:23;;;;;;;40.38;10.43;;;8.50;99.90;;;;;;5051247;28;20028;-79
2020/12/22 09:26:56;;;;;;;28.10;8.23;;;8.50;99.90;;;;;;5051409;28;20025;-79
2020/12/22 09:29:23;;;;;;;30.92;7.55;;;8.50;99.90;;;;;;5050578;28;20021;-80
2020/12/22 09:31:49;;;;;;;21.63;5.95;;;8.60;99.90;;;;;;5051229;28;20111;-79
2020/12/22 09:34:15;;;;;;;26.77;6.35;;;8.50;99.90;;;;;;5049905;28;20500;-79
2020/12/22 09:36:40;;;;;;;37.08;7.75;;;8.60;99.90;;;;;;5051252;28;20029;-80
2020/12/22 09:39:06;;;;;;;31.00;6.18;;;8.50;99.90;;;;;;5053465;28;20373;-80
2020/12/22 09:41:32;;;;;;;46.75;9.23;;;8.50;99.90;;;;;;5051234;28;20496;-79
2020/12/22 09:43:58;;;;;;;38.85;6.95;;;8.50;99.90;;;;;;5051074;28;20025;-79
2020/12/22 09:46:23;;;;;;;25.90;7.28;;;8.50;99.90;;;;;;5049927;28;20021;-80
2020/12/22 09:48:49;;;;;;;51.95;7.70;;;8.50;99.90;;;;;;5066561;28;20111;-79
2020/12/22 09:51:16;;;;;;;28.17;5.82;;;8.50;99.90;;;;;;5067847;28;20032;-80
2020/12/22 09:53:41;;;;;;;32.25;5.40;;;8.50;99.90;;;;;;5053123;28;20383;-80
2020/12/22 09:56:07;;;;;;;23.60;5.68;;;8.50;99.90;;;;;;5050873;28;20087;-80
2020/12/22 09:58:32;;;;;;;22.55;5.25;;;8.50;99.90;;;;;;5051620;28;20543;-79
2020/12/22 10:00:58;;;;;;;45.50;6.82;;;8.50;99.90;;;;;;5050974;28;20060;-79
2020/12/22 10:03:24;;;;;;;31.83;5.60;;;8.60;99.90;;;;;;5063590;28;20508;-79
2020/12/22 10:05:49;;;;;;;41.33;5.65;;;8.60;99.90;;;;;;5069664;28;20135;-79
2020/12/22 10:08:15;;;;;;;26.40;5.80;;;8.60;99.90;;;;;;5069716;28;20032;-78
2020/12/22 10:10:40;;;;;;;29.63;5.97;;;8.60;99.90;;;;;;5074694;28;20089;-79
2020/12/22 10:13:06;;;;;;;26.65;4.70;;;8.60;99.90;;;;;;5074648;28;20063;-79
2020/12/22 10:15:32;;;;;;;29.15;4.43;;;8.60;99.90;;;;;;5074235;28;20100;-79
2020/12/22 10:17:57;;;;;;;18.30;3.95;;;8.70;99.90;;;;;;5065589;28;20037;-79
2020/12/22 10:20:23;;;;;;;45.05;5.03;;;8.60;99.90;;;;;;5054676;28;20091;-78
2020/12/22 10:22:48;;;;;;;24.02;4.32;;;8.70;99.90;;;;;;5054442;28;20024;-78
2020/12/22 10:25:14;;;;;;;29.77;4.72;;;8.70;99.90;;;;;;5054266;28;20032;-78
2020/12/22 10:27:39;;;;;;;26.58;5.80;;;8.70;99.90;;;;;;5057468;28;20571;-79
2020/12/22 10:30:06;;;;;;;19.67;3.53;;;8.60;99.90;;;;;;5074356;28;20021;-80
2020/12/22 10:32:31;;;;;;;26.73;4.20;;;8.70;99.90;;;;;;5073952;28;20047;-78
2020/12/22 10:34:57;;;;;;;26.52;4.15;;;8.70;99.90;;;;;;5072894;28;20385;-79
2020/12/22 10:37:23;;;;;;;26.50;4.78;;;8.70;99.90;;;;;;5072769;28;20078;-79
2020/12/22 10:39:51;;;;;;;19.23;2.97;;;8.70;99.90;;;;;;5055623;28;20366;-78
2020/12/22 10:42:20;;;;;;;36.20;3.67;;;8.80;99.90;;;;;;5052861;28;20033;-79
2020/12/22 10:44:46;;;;;;;26.92;4.65;;;8.80;99.90;;;;;;5052608;28;20523;-79
2020/12/22 10:47:11;;;;;;;25.35;3.80;;;8.80;99.90;;;;;;5056086;28;20032;-78
2020/12/22 10:49:37;;;;;;;29.95;4.28;;;8.80;99.90;;;;;;5072520;28;20039;-79
2020/12/22 10:52:03;;;;;;;23.10;2.90;;;8.80;99.90;;;;;;5073559;28;20032;-78
2020/12/22 10:54:29;;;;;;;20.00;2.80;;;8.80;99.90;;;;;;5073651;28;20090;-79
2020/12/22 10:56:54;;;;;;;12.25;3.10;;;8.80;99.90;;;;;;5073868;28;20021;-79
2020/12/22 10:59:20;;;;;;;19.75;4.45;;;8.90;99.90;;;;;;5056282;28;20401;-78
2020/12/22 11:01:47;;;;;;;31.08;2.72;;;8.90;99.90;;;;;;5052519;28;20105;-79
2020/12/22 11:04:13;;;;;;;23.05;3.00;;;8.90;99.90;;;;;;5072312;28;20166;-79
2020/12/22 11:06:51;;;;;;;17.27;2.45;;;8.80;99.90;;;;;;5073516;28;20099;-78
2020/12/22 11:09:17;;;;;;;24.85;3.20;;;8.80;99.90;;;;;;5059477;28;20107;-80
2020/12/22 11:11:46;;;;;;;20.73;3.20;;;8.80;99.90;;;;;;5053632;28;20152;-79
2020/12/22 11:14:12;;;;;;;32.90;2.90;;;8.80;99.90;;;;;;5053390;28;20021;-78
2020/12/22 11:16:38;;;;;;;24.30;2.92;;;8.80;99.90;;;;;;5053274;28;20103;-79
2020/12/22 11:19:03;;;;;;;31.20;3.67;;;8.80;99.90;;;;;;5070909;28;20411;-79
2020/12/22 11:21:29;;;;;;;33.85;4.15;;;8.80;99.90;;;;;;5072176;28;20074;-78
2020/12/22 11:23:54;;;;;;;26.77;3.90;;;8.70;99.90;;;;;;5071775;28;20062;-79
2020/12/22 11:26:22;;;;;;;33.30;4.68;;;8.70;99.90;;;;;;5073319;28;20029;-79
2020/12/22 11:28:51;;;;;;;44.22;5.18;;;8.60;99.90;;;;;;5060385;28;20109;-78
2020/12/22 11:31:17;;;;;;;32.22;3.80;;;8.50;99.90;;;;;;5051973;28;20031;-78
2020/12/22 11:33:44;;;;;;;49.90;4.28;;;8.50;99.90;;;;;;5053145;28;20489;-78
2020/12/22 11:36:11;;;;;;;38.17;4.20;;;8.50;99.90;;;;;;5053106;28;20524;-79
2020/12/22 11:38:37;;;;;;;35.00;5.20;;;8.40;99.90;;;;;;5061016;28;20024;-79
2020/12/22 11:41:03;;;;;;;25.58;4.35;;;8.40;99.90;;;;;;5072928;28;20082;-79
2020/12/22 11:43:29;;;;;;;42.83;6.18;;;8.40;99.90;;;;;;5073064;28;20036;-79
2020/12/22 11:45:54;;;;;;;34.13;4.72;;;8.40;99.90;;;;;;5071479;28;20115;-79
2020/12/22 11:48:24;;;;;;;38.47;4.93;;;8.40;99.90;;;;;;5060840;28;20029;-80
2020/12/22 11:50:52;;;;;;;30.38;4.25;;;8.50;99.90;;;;;;5051297;28;20538;-79
2020/12/22 11:53:18;;;;;;;36.53;3.80;;;8.40;99.90;;;;;;5052767;28;20029;-79
2020/12/22 11:55:43;;;;;;;32.95;2.95;;;8.40;99.90;;;;;;5052627;28;20032;-79
2020/12/22 11:58:09;;;;;;;34.03;3.60;;;8.40;99.90;;;;;;5059817;28;20025;-79
2020/12/22 12:00:34;;;;;;;32.25;4.43;;;8.40;99.90;;;;;;5072516;28;20017;-79
2020/12/22 12:03:00;;;;;;;38.42;5.88;;;8.40;99.90;;;;;;5063871;28;20400;-79
2020/12/22 12:05:25;;;;;;;31.30;4.32;;;8.30;99.90;;;;;;5052272;28;20040;-78
2020/12/22 12:07:51;;;;;;;35.13;5.55;;;8.40;99.90;;;;;;5051223;28;20036;-79
2020/12/22 12:10:17;;;;;;;29.63;5.38;;;8.30;99.90;;;;;;5052589;28;20504;-79
2020/12/22 12:12:42;;;;;;;42.20;4.60;;;8.40;99.90;;;;;;5052540;28;20029;-79
2020/12/22 12:15:08;;;;;;;36.10;4.28;;;8.30;99.90;;;;;;5052150;28;20021;-79
2020/12/22 12:17:33;;;;;;;39.45;4.97;;;8.30;99.90;;;;;;5052194;28;20033;-79
2020/12/22 12:19:59;;;;;;;39.05;4.18;;;8.30;99.90;;;;;;5052230;28;20025;-79
2020/12/22 12:22:24;;;;;;;39.65;5.18;;;8.30;99.90;;;;;;5051084;28;20516;-79
2020/12/22 12:24:50;;;;;;;39.13;5.35;;;8.40;99.90;;;;;;5067010;28;20032;-79
2020/12/22 12:27:15;;;;;;;31.15;3.53;;;8.40;99.90;;;;;;5072025;28;20439;-79
2020/12/22 12:29:41;;;;;;;35.30;3.33;;;8.40;99.90;;;;;;5070883;28;20032;-78
2020/12/22 12:32:07;;;;;;;27.42;3.45;;;8.40;99.90;;;;;;5068503;28;20024;-79
2020/12/22 12:34:33;;;;;;;47.03;3.65;;;8.40;99.90;;;;;;5054867;28;20070;-79
2020/12/22 12:36:59;;;;;;;25.65;3.33;;;8.30;99.90;;;;;;5070827;28;20031;-79
2020/12/22 12:39:24;;;;;;;41.53;5.43;;;8.40;99.90;;;;;;5065102;28;20397;-80
2020/12/22 12:41:50;;;;;;;35.40;4.93;;;8.40;99.90;;;;;;5050722;28;20497;-79